Time;durP1;ratioP1;P1;durP2;ratioP2;P2;SDS_P1;SDS_P2;PMS_P1;PMS_P2;Temp;Humidity;BMP_temperature;BMP_pressure;BME280_temperature;BME280_humidity;BME280_pressure;Samples;Min_cycle;Max_cycle;Signal;HPM_P1;HPM_P2
2023/11/27 00:03:46;;;;;;;9.98;5.10;;;16.00;68.60;;;;;;10414162;28;20030;-54
2023/11/27 00:08:46;;;;;;;7.25;4.38;;;16.00;68.60;;;;;;10409688;28;20021;-55
2023/11/27 00:13:47;;;;;;;6.55;4.07;;;16.00;68.60;;;;;;10414003;28;20025;-54
2023/11/27 00:18:48;;;;;;;9.48;4.35;;;16.00;68.50;;;;;;10413322;28;20499;-54
2023/11/27 00:23:48;;;;;;;6.28;3.83;;;15.90;68.50;;;;;;10413123;28;20501;-55
2023/11/27 00:28:49;;;;;;;5.47;4.05;;;16.00;68.60;;;;;;10412774;28;20032;-54
2023/11/27 00:33:50;;;;;;;6.47;4.40;;;15.90;68.50;;;;;;10412865;28;20034;-54
2023/11/27 00:38:51;;;;;;;8.05;4.47;;;15.90;68.50;;;;;;10412450;28;20401;-55
2023/11/27 00:43:52;;;;;;;7.80;4.43;;;15.90;68.40;;;;;;10412544;28;20420;-55
2023/11/27 00:48:53;;;;;;;8.00;4.35;;;15.90;68.30;;;;;;10412181;28;20029;-55
2023/11/27 00:53:53;;;;;;;7.00;4.63;;;15.90;68.30;;;;;;10405764;28;20485;-55
2023/11/27 00:58:54;;;;;;;5.47;4.00;;;15.90;68.30;;;;;;10410370;28;20418;-55
2023/11/27 01:03:55;;;;;;;7.00;3.53;;;15.90;68.30;;;;;;10412035;28;20376;-55
2023/11/27 01:08:55;;;;;;;5.15;3.55;;;15.80;68.30;;;;;;10407226;28;20424;-54
2023/11/27 01:13:56;;;;;;;5.78;3.97;;;15.80;68.40;;;;;;10411776;28;20025;-55
2023/11/27 01:18:57;;;;;;;6.18;3.97;;;15.80;68.30;;;;;;10410813;28;20029;-55
2023/11/27 01:23:57;;;;;;;6.20;4.57;;;15.80;68.20;;;;;;10410994;28;20069;-55
2023/11/27 01:28:58;;;;;;;5.35;3.88;;;15.80;68.20;;;;;;10410656;28;20025;-54
2023/11/27 01:33:59;;;;;;;5.72;4.20;;;15.80;68.20;;;;;;10403402;28;20042;-55
2023/11/27 01:39:00;;;;;;;5.07;3.58;;;15.80;68.20;;;;;;10408733;28;20049;-54
2023/11/27 01:44:01;;;;;;;7.10;4.10;;;15.80;68.10;;;;;;10410246;28;20033;-54
2023/11/27 01:49:01;;;;;;;4.97;3.85;;;15.80;68.10;;;;;;10408289;28;20025;-55
2023/11/27 01:54:03;;;;;;;6.72;4.00;;;15.80;68.00;;;;;;10410020;28;20042;-55
2023/11/27 01:59:04;;;;;;;5.05;3.75;;;15.70;68.00;;;;;;10407912;28;20041;-55
2023/11/27 02:04:04;;;;;;;9.07;4.78;;;15.70;67.90;;;;;;10409529;28;20025;-55
2023/11/27 02:09:06;;;;;;;6.35;3.35;;;15.70;68.00;;;;;;10406882;28;20052;-55
2023/11/27 02:14:07;;;;;;;4.82;3.53;;;15.70;67.90;;;;;;10407956;28;20045;-53
2023/11/27 02:19:09;;;;;;;5.68;3.75;;;15.70;67.90;;;;;;10408779;28;20399;-55
2023/11/27 02:24:10;;;;;;;5.28;3.20;;;15.70;67.90;;;;;;10408768;28;20048;-55
2023/11/27 02:29:10;;;;;;;5.35;3.80;;;15.70;67.80;;;;;;10408486;28;20048;-55
2023/11/27 02:34:11;;;;;;;5.05;2.92;;;15.70;67.80;;;;;;10408480;28;20476;-55
2023/11/27 02:39:14;;;;;;;7.07;3.35;;;15.60;67.60;;;;;;10408075;28;20028;-54
2023/11/27 02:44:15;;;;;;;8.57;3.60;;;15.60;67.60;;;;;;10408717;28;20084;-54
2023/11/27 02:49:17;;;;;;;5.05;3.47;;;15.60;67.60;;;;;;10406494;28;20029;-55
2023/11/27 02:54:18;;;;;;;9.20;4.30;;;15.60;67.50;;;;;;10408628;28;20464;-55
2023/11/27 02:59:18;;;;;;;5.22;3.10;;;15.60;67.40;;;;;;10407949;28;20040;-55
2023/11/27 03:04:19;;;;;;;3.97;3.00;;;15.60;67.90;;;;;;10407886;28;20034;-55
2023/11/27 03:09:21;;;;;;;5.03;3.05;;;15.70;71.10;;;;;;10407798;28;20033;-55
2023/11/27 03:14:22;;;;;;;7.30;3.90;;;15.70;70.40;;;;;;10408056;28;20033;-55
2023/11/27 03:19:23;;;;;;;5.55;3.85;;;15.70;70.00;;;;;;10407554;28;20040;-55
2023/11/27 03:24:23;;;;;;;6.20;2.97;;;15.70;69.80;;;;;;10407456;28;20049;-54
2023/11/27 03:29:24;;;;;;;5.05;3.47;;;15.70;69.60;;;;;;10407143;28;20113;-55
2023/11/27 03:34:25;;;;;;;6.93;3.92;;;15.70;69.50;;;;;;10407694;28;20037;-54
2023/11/27 03:39:26;;;;;;;6.63;3.75;;;15.60;69.30;;;;;;10407063;28;20033;-55
2023/11/27 03:44:27;;;;;;;5.28;4.07;;;15.60;69.20;;;;;;10410301;28;20033;-54
2023/11/27 03:49:27;;;;;;;4.00;2.97;;;15.60;69.00;;;;;;10414629;28;20041;-54
2023/11/27 03:54:28;;;;;;;4.55;3.20;;;15.60;68.80;;;;;;10414759;28;20045;-54
2023/11/27 03:59:29;;;;;;;6.78;3.78;;;15.60;68.70;;;;;;10414127;28;20040;-55
2023/11/27 04:04:30;;;;;;;4.90;2.97;;;15.50;68.70;;;;;;10414210;28;20525;-55
2023/11/27 04:09:31;;;;;;;5.40;3.33;;;15.50;68.50;;;;;;10412193;28;20052;-54
2023/11/27 04:14:32;;;;;;;4.40;2.88;;;15.50;68.40;;;;;;10414117;28;20029;-54
2023/11/27 04:19:32;;;;;;;5.57;3.35;;;15.50;68.40;;;;;;10413365;28;20069;-55
2023/11/27 04:24:33;;;;;;;4.50;2.80;;;15.50;68.30;;;;;;10411930;28;20041;-54
2023/11/27 04:29:34;;;;;;;4.30;2.92;;;15.50;68.20;;;;;;10412286;28;20033;-54
2023/11/27 04:34:34;;;;;;;4.85;3.50;;;15.50;68.20;;;;;;10413446;28;20045;-54
2023/11/27 04:39:35;;;;;;;5.70;3.20;;;15.50;68.40;;;;;;10408549;28;20668;-54
2023/11/27 04:44:36;;;;;;;6.05;3.88;;;15.70;68.50;;;;;;10405770;28;20036;-55
2023/11/27 04:49:37;;;;;;;5.00;2.88;;;15.80;68.20;;;;;;10411182;28;20033;-55
2023/11/27 04:54:38;;;;;;;6.03;3.45;;;15.80;68.90;;;;;;10411143;28;20021;-55
2023/11/27 04:59:39;;;;;;;3.63;3.05;;;15.70;68.30;;;;;;10408274;28;20722;-53
2023/11/27 05:04:39;;;;;;;4.30;2.88;;;15.60;68.20;;;;;;10409701;28;20035;-54
2023/11/27 05:09:40;;;;;;;5.88;3.35;;;15.60;68.20;;;;;;10410994;28;20017;-54
2023/11/27 05:14:41;;;;;;;4.53;3.10;;;15.50;68.20;;;;;;10411540;28;20021;-53
2023/11/27 05:19:42;;;;;;;4.88;2.83;;;15.50;68.30;;;;;;10409660;28;20033;-53
2023/11/27 05:24:43;;;;;;;5.10;2.55;;;15.50;68.30;;;;;;10411048;28;20384;-54
2023/11/27 05:29:43;;;;;;;6.18;2.90;;;15.40;68.30;;;;;;10410708;28;20419;-54
2023/11/27 05:34:44;;;;;;;4.18;2.72;;;15.40;68.20;;;;;;10409653;28;20051;-53
2023/11/27 05:39:45;;;;;;;4.07;3.42;;;15.40;68.10;;;;;;10409629;28;20381;-53
2023/11/27 05:44:46;;;;;;;5.57;2.72;;;15.40;67.80;;;;;;10410357;28;20033;-54
2023/11/27 05:49:47;;;;;;;3.20;2.20;;;15.60;67.10;;;;;;10408659;28;20049;-52
2023/11/27 05:54:48;;;;;;;3.65;2.05;;;15.80;66.40;;;;;;10395317;28;20033;-53
2023/11/27 05:59:48;;;;;;;7.32;1.90;;;16.00;65.60;;;;;;10409444;28;20029;-53
2023/11/27 06:04:49;;;;;;;7.00;1.80;;;16.20;65.50;;;;;;10407946;28;20042;-49
2023/11/27 06:09:50;;;;;;;4.47;2.33;;;16.40;65.30;;;;;;10401578;28;20029;-50
2023/11/27 06:14:50;;;;;;;5.38;1.73;;;16.70;64.90;;;;;;10409137;28;20022;-52
2023/11/27 06:19:51;;;;;;;4.13;2.00;;;16.80;65.30;;;;;;10398271;28;20026;-52
2023/11/27 06:24:52;;;;;;;3.83;1.50;;;17.00;64.30;;;;;;10377561;28;20041;-51
2023/11/27 06:29:53;;;;;;;6.65;2.60;;;17.20;63.50;;;;;;10407458;28;20042;-52
2023/11/27 06:34:55;;;;;;;10.60;1.95;;;17.20;63.60;;;;;;10408213;28;20057;-53
2023/11/27 06:39:56;;;;;;;13.77;3.50;;;17.10;63.80;;;;;;10408689;28;20063;-53
2023/11/27 06:44:57;;;;;;;10.35;2.08;;;17.20;63.90;;;;;;10408130;28;20526;-49
2023/11/27 06:49:58;;;;;;;23.42;3.65;;;17.20;64.30;;;;;;10406522;28;20607;-53
2023/11/27 06:54:59;;;;;;;18.08;3.20;;;17.20;64.40;;;;;;10407524;28;20048;-52
2023/11/27 07:00:00;;;;;;;22.48;4.65;;;17.50;64.40;;;;;;10408099;28;20033;-51
2023/11/27 07:05:01;;;;;;;31.50;6.53;;;17.60;64.00;;;;;;10407277;28;20037;-54
2023/11/27 07:10:02;;;;;;;20.98;3.90;;;17.60;64.80;;;;;;10401732;28;20079;-52
2023/11/27 07:15:03;;;;;;;19.05;4.07;;;17.60;64.60;;;;;;10403432;28;20641;-55
2023/11/27 07:20:05;;;;;;;17.48;3.15;;;17.70;64.30;;;;;;10410181;28;20492;-50
2023/11/27 07:25:06;;;;;;;20.35;3.90;;;17.80;63.30;;;;;;10409646;28;20052;-53
2023/11/27 07:30:07;;;;;;;16.67;2.63;;;17.90;62.80;;;;;;10409794;28;20036;-52
2023/11/27 07:35:12;;;;;;;11.70;2.58;;;18.10;62.50;;;;;;10407748;28;20052;-53
2023/11/27 07:40:14;;;;;;;10.75;2.95;;;18.20;62.00;;;;;;10409702;28;20067;-51
2023/11/27 07:45:15;;;;;;;11.40;2.65;;;18.00;62.90;;;;;;10405444;28;20029;-52
2023/11/27 07:50:16;;;;;;;10.48;2.88;;;18.00;63.10;;;;;;10410203;28;20094;-53
2023/11/27 07:55:16;;;;;;;9.23;2.63;;;17.90;63.80;;;;;;10411736;28;20037;-54
2023/11/27 08:00:17;;;;;;;9.32;2.30;;;17.80;64.00;;;;;;10409895;28;20056;-52
2023/11/27 08:05:20;;;;;;;11.07;2.65;;;17.80;64.20;;;;;;10411925;28;20115;-54
2023/11/27 08:10:21;;;;;;;9.18;2.30;;;17.80;64.40;;;;;;10400973;28;20468;-51
2023/11/27 08:15:21;;;;;;;13.45;3.30;;;17.60;64.70;;;;;;10410343;28;20047;-53
2023/11/27 08:20:28;;;;;;;10.65;2.13;;;17.50;65.00;;;;;;10412008;28;20400;-54
2023/11/27 08:25:29;;;;;;;11.73;2.28;;;17.50;65.30;;;;;;10409933;28;20096;-54
2023/11/27 08:30:32;;;;;;;7.30;1.63;;;17.30;65.30;;;;;;10405959;28;20029;-50
2023/11/27 08:53:20;;;;;;;15.73;3.03;;;17.00;65.80;;;;;;10481780;28;21019;-58
2023/11/27 08:58:21;;;;;;;8.85;2.60;;;16.90;66.40;;;;;;10438880;28;20037;-52
2023/11/27 09:03:21;;;;;;;14.77;2.97;;;16.90;66.40;;;;;;10440929;28;20025;-55
2023/11/27 09:08:22;;;;;;;18.40;3.10;;;16.90;66.20;;;;;;10441047;28;20099;-58
2023/11/27 09:13:23;;;;;;;7.80;2.95;;;16.80;66.80;;;;;;10421121;28;20087;-59
2023/11/27 09:18:24;;;;;;;14.68;2.50;;;16.90;66.70;;;;;;10431532;28;20048;-57
2023/11/27 09:23:25;;;;;;;8.10;2.22;;;16.90;66.60;;;;;;10405771;28;20026;-56
2023/11/27 09:28:27;;;;;;;10.98;2.42;;;16.90;66.50;;;;;;10406367;28;20030;-56
2023/11/27 09:33:27;;;;;;;24.17;2.42;;;16.90;66.60;;;;;;10424668;28;20034;-57
2023/11/27 09:38:30;;;;;;;10.60;2.35;;;16.90;66.80;;;;;;10398154;28;20656;-57
2023/11/27 09:43:31;;;;;;;7.55;2.63;;;16.90;66.40;;;;;;10399226;28;20057;-54
2023/11/27 09:48:34;;;;;;;10.23;2.28;;;16.90;66.70;;;;;;10398618;28;20068;-55
2023/11/27 09:53:40;;;;;;;9.50;2.38;;;16.90;66.90;;;;;;10409026;28;20605;-56
2023/11/27 09:58:42;;;;;;;8.13;2.55;;;16.80;67.00;;;;;;10438974;28;20061;-55
2023/11/27 10:03:43;;;;;;;17.85;2.80;;;16.80;67.20;;;;;;10417050;28;20036;-57
2023/11/27 10:08:44;;;;;;;8.57;2.10;;;16.80;66.90;;;;;;10395986;28;20944;-58
2023/11/27 10:13:45;;;;;;;5.25;1.90;;;16.80;67.00;;;;;;10386431;28;20034;-56
2023/11/27 10:18:51;;;;;;;7.10;2.22;;;16.80;67.00;;;;;;10385459;28;20037;-52
2023/11/27 10:23:52;;;;;;;4.25;2.05;;;16.80;67.20;;;;;;10382579;28;20061;-55
2023/11/27 10:28:53;;;;;;;5.75;2.33;;;16.80;67.20;;;;;;10383858;28;20444;-58
2023/11/27 10:33:55;;;;;;;5.80;2.03;;;16.70;67.20;;;;;;10383957;28;20022;-56
2023/11/27 10:39:14;;;;;;;8.90;2.10;;;16.80;67.30;;;;;;10382629;28;20029;-56
2023/11/27 10:44:17;;;;;;;6.28;2.40;;;16.80;68.10;;;;;;10382231;28;20151;-59
2023/11/27 10:49:19;;;;;;;9.80;2.72;;;16.70;67.50;;;;;;10382487;28;20044;-54
2023/11/27 10:54:24;;;;;;;6.78;2.13;;;16.70;67.70;;;;;;10379273;28;20064;-55
2023/11/27 10:59:26;;;;;;;7.88;2.25;;;16.70;67.30;;;;;;10385662;28;20025;-55
2023/11/27 11:04:51;;;;;;;14.07;2.28;;;16.80;67.30;;;;;;10377881;28;20022;-54
2023/11/27 11:09:55;;;;;;;6.80;2.10;;;16.80;67.10;;;;;;10377241;28;20065;-53
2023/11/27 11:14:56;;;;;;;13.00;3.20;;;16.90;66.70;;;;;;10389241;28;20059;-55
2023/11/27 11:20:34;;;;;;;8.82;2.55;;;17.10;66.30;;;;;;10408631;28;20112;-55
2023/11/27 11:25:54;;;;;;;10.75;3.15;;;17.20;65.90;;;;;;10394566;28;20033;-54
2023/11/27 11:31:17;;;;;;;5.45;1.80;;;17.20;65.50;;;;;;10393372;28;20025;-53
2023/11/27 11:36:33;;;;;;;13.07;2.17;;;17.20;65.40;;;;;;10407650;28;20036;-54
2023/11/27 11:41:36;;;;;;;9.23;1.90;;;17.20;65.50;;;;;;10377516;28;20051;-53
2023/11/27 11:46:40;;;;;;;8.23;2.15;;;17.30;66.00;;;;;;10401070;28;20042;-52
2023/11/27 11:52:05;;;;;;;7.90;1.85;;;17.30;66.00;;;;;;10371018;28;20370;-53
2023/11/27 11:57:21;;;;;;;6.95;2.13;;;17.30;66.00;;;;;;10369612;28;20390;-56
2023/11/27 12:02:22;;;;;;;8.45;2.00;;;17.30;65.90;;;;;;10368214;28;20104;-56
2023/11/27 12:07:24;;;;;;;10.43;2.10;;;17.40;66.00;;;;;;10365936;28;20478;-53
2023/11/27 12:12:27;;;;;;;7.82;1.83;;;17.40;65.90;;;;;;10404891;28;20056;-53
2023/11/27 12:17:29;;;;;;;5.90;1.77;;;17.30;65.70;;;;;;10400030;28;20044;-54
2023/11/27 12:22:30;;;;;;;8.13;1.92;;;17.30;66.20;;;;;;10373302;28;20037;-57
2023/11/27 12:27:34;;;;;;;9.75;2.80;;;17.30;66.30;;;;;;10364429;28;20051;-55
2023/11/27 12:32:35;;;;;;;7.97;2.67;;;17.30;66.50;;;;;;10388568;28;20034;-50
2023/11/27 12:37:36;;;;;;;13.00;2.42;;;17.40;66.50;;;;;;10367238;28;20034;-55
2023/11/27 12:42:36;;;;;;;4.60;1.75;;;17.30;66.70;;;;;;10400949;28;20045;-56
2023/11/27 12:47:37;;;;;;;9.10;2.40;;;17.30;66.70;;;;;;10370108;28;20519;-54
2023/11/27 12:52:38;;;;;;;6.20;1.98;;;17.30;66.90;;;;;;10399573;28;20037;-56
2023/11/27 12:57:39;;;;;;;7.28;2.10;;;17.30;66.30;;;;;;10403226;28;20112;-55
2023/11/27 13:02:43;;;;;;;5.70;1.90;;;17.30;66.30;;;;;;10368748;28;20048;-55
2023/11/27 13:07:43;;;;;;;5.00;1.65;;;17.30;66.00;;;;;;10364460;28;20049;-52
2023/11/27 13:12:50;;;;;;;6.20;1.63;;;17.30;65.80;;;;;;10367591;28;20671;-55
2023/11/27 13:17:56;;;;;;;7.90;2.28;;;17.30;65.90;;;;;;10402525;28;20110;-55
2023/11/27 13:23:01;;;;;;;16.23;3.55;;;17.20;66.70;;;;;;10385124;28;20113;-56
2023/11/27 13:28:07;;;;;;;16.73;3.40;;;17.20;67.40;;;;;;10368627;28;20116;-57
2023/11/27 13:33:11;;;;;;;18.00;3.00;;;17.20;67.20;;;;;;10370092;28;20025;-55
2023/11/27 13:38:15;;;;;;;11.75;2.72;;;17.30;67.70;;;;;;10369592;28;20044;-58
2023/11/27 13:43:18;;;;;;;14.98;2.42;;;17.30;68.10;;;;;;10405029;28;20083;-56
2023/11/27 13:48:21;;;;;;;14.40;2.58;;;17.40;68.30;;;;;;10411573;28;20030;-57
2023/11/27 13:53:24;;;;;;;14.20;2.17;;;17.40;68.60;;;;;;10413213;28;20068;-58
2023/11/27 13:58:30;;;;;;;19.98;3.35;;;17.30;68.90;;;;;;10402523;28;20030;-59
2023/11/27 14:03:34;;;;;;;23.60;4.03;;;17.30;68.90;;;;;;10371606;28;20057;-57
2023/11/27 14:08:45;;;;;;;20.52;3.90;;;17.30;69.20;;;;;;10371295;28;20355;-58
2023/11/27 14:13:48;;;;;;;9.88;3.00;;;17.30;69.60;;;;;;10371383;28;20176;-55
2023/11/27 14:18:51;;;;;;;13.88;2.95;;;17.20;69.50;;;;;;10374052;28;20121;-59
2023/11/27 14:23:57;;;;;;;17.90;4.45;;;17.30;69.50;;;;;;10372032;28;20069;-57
2023/11/27 14:29:00;;;;;;;19.75;4.05;;;17.20;70.00;;;;;;10376416;28;20062;-57
2023/11/27 14:34:01;;;;;;;19.23;4.30;;;17.30;69.60;;;;;;10407464;28;20522;-57
2023/11/27 14:39:03;;;;;;;14.63;3.17;;;17.30;69.60;;;;;;10411779;28;20075;-58
2023/11/27 14:44:03;;;;;;;12.23;3.65;;;17.30;69.50;;;;;;10409482;28;20025;-58
2023/11/27 14:49:06;;;;;;;15.30;3.55;;;17.30;69.60;;;;;;10373500;28;20053;-57
2023/11/27 14:54:10;;;;;;;18.05;3.35;;;17.30;69.60;;;;;;10388867;28;20029;-55
2023/11/27 14:59:12;;;;;;;25.27;4.47;;;17.30;69.60;;;;;;10407859;28;20055;-56
2023/11/27 15:04:13;;;;;;;21.75;3.92;;;17.40;69.60;;;;;;10410244;28;20037;-52
2023/11/27 15:14:22;;;;;;;20.88;4.68;;;17.30;70.50;;;;;;10403009;28;20038;-53
2023/11/27 15:19:24;;;;;;;22.15;3.60;;;17.10;69.70;;;;;;10397769;28;20060;-51
2023/11/27 15:24:29;;;;;;;18.98;3.92;;;17.10;69.50;;;;;;10406819;28;20029;-56
2023/11/27 15:29:31;;;;;;;15.30;3.15;;;17.10;69.10;;;;;;10402202;28;20028;-51
2023/11/27 15:34:32;;;;;;;10.95;3.13;;;17.20;70.00;;;;;;10374958;28;20080;-54
2023/11/27 15:39:34;;;;;;;14.13;3.65;;;17.10;70.10;;;;;;10369231;28;20034;-55
2023/11/27 15:44:35;;;;;;;10.98;3.47;;;17.20;68.70;;;;;;10398498;28;20026;-54
2023/11/27 15:49:38;;;;;;;15.07;2.92;;;17.40;68.50;;;;;;10380824;28;20489;-53
2023/11/27 15:54:40;;;;;;;12.23;3.00;;;17.40;68.30;;;;;;10369257;28;20029;-56
2023/11/27 15:59:43;;;;;;;8.15;3.30;;;17.50;68.30;;;;;;10380948;28;20042;-53
2023/11/27 16:04:43;;;;;;;9.07;2.88;;;17.40;67.90;;;;;;10404112;28;20061;-54
2023/11/27 16:09:44;;;;;;;13.82;2.90;;;17.40;68.40;;;;;;10400572;28;20436;-53
2023/11/27 16:14:45;;;;;;;19.38;3.13;;;17.30;69.00;;;;;;10375316;28;20089;-53
2023/11/27 16:19:46;;;;;;;14.48;2.95;;;17.30;69.80;;;;;;10382556;28;20039;-55
2023/11/27 16:24:48;;;;;;;8.45;2.55;;;17.30;70.70;;;;;;10384053;28;20037;-54
2023/11/27 16:29:49;;;;;;;9.85;2.97;;;17.20;69.90;;;;;;10387451;28;20041;-55
2023/11/27 16:34:50;;;;;;;6.90;2.53;;;17.30;69.80;;;;;;10372068;28;20030;-54
2023/11/27 16:39:51;;;;;;;8.18;2.42;;;17.30;69.60;;;;;;10382947;28;20033;-55
2023/11/27 16:44:52;;;;;;;6.40;2.15;;;17.20;69.80;;;;;;10381567;28;20129;-54
2023/11/27 16:49:52;;;;;;;10.65;2.80;;;17.30;69.40;;;;;;10381915;28;20049;-55
2023/11/27 16:54:53;;;;;;;9.95;2.30;;;17.20;69.30;;;;;;10378387;28;20556;-56
2023/11/27 16:59:54;;;;;;;9.10;2.20;;;17.20;69.50;;;;;;10369384;28;20037;-56
2023/11/27 17:04:54;;;;;;;7.03;2.38;;;17.20;69.60;;;;;;10390480;28;20425;-55
2023/11/27 17:09:55;;;;;;;4.45;1.95;;;17.20;69.50;;;;;;10395615;28;20033;-54
2023/11/27 17:14:56;;;;;;;9.38;2.47;;;17.10;69.30;;;;;;10399595;28;20033;-55
2023/11/27 17:19:57;;;;;;;7.40;1.75;;;17.10;70.60;;;;;;10374671;28;20382;-57
2023/11/27 17:24:57;;;;;;;10.82;2.47;;;17.30;70.30;;;;;;10373139;28;20025;-55
2023/11/27 17:29:58;;;;;;;7.97;2.15;;;17.40;71.20;;;;;;10387469;28;20036;-54
2023/11/27 17:35:02;;;;;;;12.57;3.45;;;17.30;70.80;;;;;;10386118;28;20026;-53
2023/11/27 17:40:12;;;;;;;7.78;2.45;;;17.20;70.80;;;;;;10384354;28;20043;-56
2023/11/27 17:45:16;;;;;;;;;;;17.00;70.30;;;;;;10388168;28;20065;-56
2023/11/27 17:50:20;;;;;;;8.65;1.88;;;16.90;70.50;;;;;;10396696;28;19928;-56
2023/11/27 17:55:30;;;;;;;13.23;3.10;;;16.80;70.50;;;;;;10375409;28;20021;-54
2023/11/27 18:00:31;;;;;;;6.53;2.25;;;16.80;70.70;;;;;;10376384;28;20470;-55
2023/11/27 18:05:32;;;;;;;7.38;1.80;;;16.80;70.50;;;;;;10389661;28;20028;-53
2023/11/27 18:10:32;;;;;;;8.57;1.90;;;16.70;70.50;;;;;;10369268;28;20092;-55
2023/11/27 18:15:33;;;;;;;10.65;2.63;;;16.60;70.40;;;;;;10401324;28;20026;-55
2023/11/27 18:20:34;;;;;;;7.03;1.90;;;16.60;70.40;;;;;;10390848;28;20037;-54
2023/11/27 18:25:35;;;;;;;12.80;2.35;;;16.50;70.30;;;;;;10387090;28;20036;-55
2023/11/27 18:30:35;;;;;;;8.23;2.05;;;16.50;70.20;;;;;;10395624;28;20038;-53
2023/11/27 18:35:38;;;;;;;13.70;2.70;;;16.50;70.40;;;;;;10375384;28;20026;-57
2023/11/27 18:40:38;;;;;;;5.03;1.92;;;16.40;69.80;;;;;;10389515;28;20037;-53
2023/11/27 18:45:39;;;;;;;6.82;1.85;;;16.40;70.10;;;;;;10399015;28;20034;-55
2023/11/27 18:50:40;;;;;;;4.97;2.67;;;16.40;70.20;;;;;;10402954;28;20041;-55
2023/11/27 18:55:44;;;;;;;4.97;2.05;;;16.30;70.30;;;;;;10394577;28;20049;-55
2023/11/27 19:00:45;;;;;;;9.10;1.58;;;16.30;70.40;;;;;;10400684;28;20036;-55
2023/11/27 19:05:46;;;;;;;3.55;1.60;;;16.30;70.30;;;;;;10384911;28;20429;-57
2023/11/27 19:10:47;;;;;;;4.00;1.60;;;16.30;70.50;;;;;;10401623;28;20038;-56
2023/11/27 19:15:51;;;;;;;4.13;1.30;;;16.30;70.70;;;;;;10402938;28;20033;-57
2023/11/27 19:20:53;;;;;;;4.93;1.90;;;16.40;70.80;;;;;;10405925;28;20120;-55
2023/11/27 19:25:54;;;;;;;5.68;1.98;;;16.40;70.90;;;;;;10387525;28;20034;-55
2023/11/27 19:30:56;;;;;;;3.95;1.40;;;16.50;71.00;;;;;;10395151;28;20042;-57
2023/11/27 19:36:00;;;;;;;4.30;1.63;;;16.50;70.90;;;;;;10366548;28;20394;-57
2023/11/27 19:41:05;;;;;;;3.17;1.80;;;16.50;71.00;;;;;;10383836;28;20073;-56
2023/11/27 19:46:06;;;;;;;3.92;1.52;;;16.60;71.10;;;;;;10388088;28;20051;-57
2023/11/27 19:51:12;;;;;;;5.97;2.10;;;16.60;71.20;;;;;;10378832;28;20057;-57
2023/11/27 19:56:15;;;;;;;4.13;1.58;;;16.60;71.40;;;;;;10366984;28;20025;-55
2023/11/27 20:01:16;;;;;;;4.32;1.38;;;16.60;71.30;;;;;;10372358;28;20440;-56
2023/11/27 20:06:17;;;;;;;2.28;1.15;;;16.60;71.40;;;;;;10366659;28;20018;-57
2023/11/27 20:11:17;;;;;;;4.68;1.20;;;16.60;71.40;;;;;;10368322;28;20026;-57
2023/11/27 20:16:19;;;;;;;4.57;1.55;;;16.60;71.30;;;;;;10389530;28;20022;-57
2023/11/27 20:21:21;;;;;;;3.47;1.25;;;16.60;71.40;;;;;;10386231;28;20040;-56
2023/11/27 20:26:23;;;;;;;6.28;1.50;;;16.60;71.80;;;;;;10400260;28;20456;-57
2023/11/27 20:31:23;;;;;;;4.45;2.25;;;16.50;71.40;;;;;;10375429;28;20369;-58
2023/11/27 20:36:24;;;;;;;5.20;2.03;;;16.40;71.50;;;;;;10366039;28;20032;-55
2023/11/27 20:41:25;;;;;;;5.05;1.63;;;16.40;71.10;;;;;;10368505;28;20056;-56
2023/11/27 20:46:27;;;;;;;3.05;1.30;;;16.40;71.10;;;;;;10384002;28;20026;-57
2023/11/27 20:51:28;;;;;;;4.70;1.58;;;16.30;71.00;;;;;;10363162;28;20080;-55
2023/11/27 20:56:29;;;;;;;5.47;1.42;;;16.30;71.20;;;;;;10389023;28;20029;-55
2023/11/27 21:01:30;;;;;;;6.10;1.48;;;16.20;71.20;;;;;;10372701;28;20026;-56
2023/11/27 21:06:31;;;;;;;4.32;1.80;;;16.20;71.30;;;;;;10370409;28;20048;-57
2023/11/27 21:11:32;;;;;;;1.35;0.80;;;16.20;71.20;;;;;;10366849;28;20026;-56
2023/11/27 21:16:36;;;;;;;2.40;1.23;;;16.10;71.10;;;;;;10367388;28;20030;-56
2023/11/27 21:21:36;;;;;;;3.58;1.00;;;16.10;71.20;;;;;;10367209;28;20041;-57
2023/11/27 21:26:38;;;;;;;2.78;1.10;;;16.10;71.20;;;;;;10367030;28;20036;-57
2023/11/27 21:31:39;;;;;;;2.63;1.00;;;16.00;71.20;;;;;;10381595;28;20026;-57
2023/11/27 21:36:39;;;;;;;2.03;0.90;;;16.00;71.10;;;;;;10366588;28;20022;-57
2023/11/27 21:41:40;;;;;;;3.13;1.13;;;16.00;71.10;;;;;;10372692;28;20032;-57
2023/11/27 21:46:41;;;;;;;2.75;1.60;;;15.90;71.00;;;;;;10381459;28;20030;-57
2023/11/27 21:51:42;;;;;;;3.10;1.52;;;15.90;71.00;;;;;;10366431;28;20045;-57
2023/11/27 21:56:42;;;;;;;1.33;0.93;;;15.90;71.00;;;;;;10367034;28;20029;-56
2023/11/27 22:01:43;;;;;;;2.22;1.95;;;15.80;71.00;;;;;;10356118;28;20473;-56
2023/11/27 22:06:45;;;;;;;1.00;0.80;;;15.80;71.00;;;;;;10372075;28;20440;-54
2023/11/27 22:11:46;;;;;;;2.85;0.90;;;15.80;70.90;;;;;;10386452;28;20034;-57
2023/11/27 22:16:47;;;;;;;2.80;1.10;;;15.80;70.90;;;;;;10373313;28;20041;-57
2023/11/27 22:21:48;;;;;;;2.08;0.80;;;15.80;71.00;;;;;;10373068;28;20045;-57
2023/11/27 22:26:48;;;;;;;1.73;0.80;;;15.80;71.00;;;;;;10372487;28;20499;-57
2023/11/27 22:31:49;;;;;;;2.88;1.10;;;15.70;71.00;;;;;;10387195;28;20432;-57
2023/11/27 22:36:50;;;;;;;2.42;1.20;;;15.70;71.00;;;;;;10372097;28;20053;-56
2023/11/27 22:41:51;;;;;;;2.80;1.10;;;15.70;70.90;;;;;;10380117;28;20026;-55
2023/11/27 22:46:51;;;;;;;1.42;0.98;;;15.70;70.90;;;;;;10412800;28;20592;-57
2023/11/27 22:51:52;;;;;;;1.48;0.90;;;15.70;70.90;;;;;;10412664;28;20034;-57
2023/11/27 22:56:53;;;;;;;1.52;0.85;;;15.70;71.00;;;;;;10411111;28;20033;-57
2023/11/27 23:01:53;;;;;;;1.02;0.70;;;15.60;70.90;;;;;;10411103;28;20030;-57
2023/11/27 23:06:54;;;;;;;2.15;0.75;;;15.60;70.90;;;;;;10411853;28;20537;-57
2023/11/27 23:11:55;;;;;;;0.77;0.50;;;15.60;70.90;;;;;;10412056;28;20516;-57
2023/11/27 23:16:56;;;;;;;0.88;0.65;;;15.60;70.90;;;;;;10383033;28;20130;-56
2023/11/27 23:21:57;;;;;;;1.88;1.23;;;15.60;70.80;;;;;;10370783;28;20029;-57
2023/11/27 23:26:57;;;;;;;0.85;0.57;;;15.60;70.80;;;;;;10370437;28;20030;-56
2023/11/27 23:31:58;;;;;;;1.63;0.80;;;15.60;70.70;;;;;;10386690;28;20040;-56
2023/11/27 23:36:59;;;;;;;2.35;0.65;;;15.60;70.70;;;;;;10369552;28;20488;-56
2023/11/27 23:42:00;;;;;;;0.88;0.70;;;15.50;70.70;;;;;;10400462;28;20040;-57
2023/11/27 23:47:01;;;;;;;1.40;0.65;;;15.50;70.60;;;;;;10410384;28;20026;-56
2023/11/27 23:52:02;;;;;;;1.83;0.60;;;15.50;70.60;;;;;;10410188;28;20497;-55
2023/11/27 23:57:03;;;;;;;1.33;0.70;;;15.50;70.60;;;;;;10409902;28;20053;-56
